Time;durP1;ratioP1;P1;durP2;ratioP2;P2;SDS_P1;SDS_P2;PMS_P1;PMS_P2;Temp;Humidity;BMP_temperature;BMP_pressure;BME280_temperature;BME280_humidity;BME280_pressure;Samples;Min_cycle;Max_cycle;Signal;HPM_P1;HPM_P2
2022/09/24 00:00:28;;;;;;;6.88;2.08;;;12.60;99.90;;;;;;5006658;28;20026;-77
2022/09/24 00:02:53;;;;;;;3.28;2.22;;;12.60;99.90;;;;;;5021418;28;20046;-77
2022/09/24 00:05:20;;;;;;;23.85;10.85;;;;;;;;;;5006884;28;20033;-78
2022/09/24 00:07:45;;;;;;;2.80;2.28;;;12.70;99.90;;;;;;5006188;28;20132;-77
2022/09/24 00:10:11;;;;;;;2.00;1.55;;;12.70;99.90;;;;;;5006938;28;20113;-78
2022/09/24 00:12:37;;;;;;;1.40;1.33;;;12.70;99.90;;;;;;5006924;28;20168;-77
2022/09/24 00:15:04;;;;;;;6.38;2.63;;;12.70;99.90;;;;;;5006609;28;20083;-77
2022/09/24 00:17:29;;;;;;;1.23;1.13;;;12.70;99.90;;;;;;5007359;28;20041;-77
2022/09/24 00:19:55;;;;;;;3.70;2.50;;;12.70;99.90;;;;;;5006501;28;20018;-77
2022/09/24 00:22:20;;;;;;;2.47;2.28;;;12.60;99.90;;;;;;5006701;28;20041;-78
2022/09/24 00:27:30;;;;;;;6.32;2.40;;;12.70;99.90;;;;;;5006107;28;20036;-78
2022/09/24 00:29:56;;;;;;;2.15;1.40;;;12.70;99.90;;;;;;5006255;28;20022;-77
2022/09/24 00:32:23;;;;;;;1.65;1.17;;;12.80;99.90;;;;;;5006359;28;20498;-77
2022/09/24 00:34:52;;;;;;;1.27;1.17;;;;;;;;;;5006343;28;20362;-77
2022/09/24 00:37:30;;;;;;;1.88;1.77;;;12.90;99.90;;;;;;5006701;28;20079;-77
2022/09/24 00:39:56;;;;;;;1.98;1.35;;;12.90;99.90;;;;;;5006488;28;20084;-77
2022/09/24 00:42:22;;;;;;;1.80;1.70;;;12.80;99.90;;;;;;5006259;28;20030;-76
2022/09/24 00:44:52;;;;;;;1.17;1.15;;;12.80;99.90;;;;;;5006273;28;20021;-77
2022/09/24 00:47:26;;;;;;;1.27;1.17;;;12.70;99.90;;;;;;5006183;28;20041;-77
2022/09/24 00:49:55;;;;;;;1.70;1.45;;;12.80;99.90;;;;;;5005839;28;20105;-77
2022/09/24 00:52:20;;;;;;;3.47;2.35;;;12.80;99.90;;;;;;5007545;28;20026;-77
2022/09/24 00:54:47;;;;;;;1.33;1.00;;;12.90;99.90;;;;;;5009798;28;20091;-77
2022/09/24 00:57:13;;;;;;;1.63;1.08;;;12.90;99.90;;;;;;5009816;28;20494;-77
2022/09/24 00:59:41;;;;;;;1.05;0.95;;;12.80;99.90;;;;;;5009382;28;20032;-78
2022/09/24 01:02:07;;;;;;;0.77;0.77;;;12.80;99.90;;;;;;5009659;28;20037;-78
2022/09/24 01:04:33;;;;;;;1.27;1.13;;;;;;;;;;5009015;28;20112;-78
2022/09/24 01:07:00;;;;;;;0.98;0.88;;;12.70;99.90;;;;;;5008209;28;20029;-78
2022/09/24 01:09:26;;;;;;;0.73;0.73;;;12.70;99.90;;;;;;5006885;28;20145;-78
2022/09/24 01:11:55;;;;;;;5.32;1.33;;;12.60;99.90;;;;;;5008860;28;20478;-77
2022/09/24 01:14:26;;;;;;;2.90;1.50;;;12.00;99.90;;;;;;5006938;28;20117;-77
2022/09/24 01:16:59;;;;;;;2.05;1.85;;;12.50;99.90;;;;;;5008910;28;20030;-77
2022/09/24 01:19:56;;;;;;;1.92;0.80;;;12.50;99.90;;;;;;5009157;28;20022;-78
2022/09/24 01:22:56;;;;;;;0.65;0.65;;;12.50;99.90;;;;;;5009496;28;20332;-77
2022/09/24 01:26:01;;;;;;;1.20;1.10;;;12.50;99.90;;;;;;5007947;28;20494;-77
2022/09/24 01:28:50;;;;;;;1.17;1.10;;;12.40;99.90;;;;;;5008911;28;20018;-77
2022/09/24 01:31:24;;;;;;;4.72;0.90;;;12.50;99.90;;;;;;5007945;28;20589;-77
2022/09/24 01:33:53;;;;;;;0.88;0.88;;;12.50;99.90;;;;;;5008603;28;20045;-78
2022/09/24 01:36:21;;;;;;;0.70;0.50;;;12.50;99.90;;;;;;5009475;28;20028;-77
2022/09/24 01:38:50;;;;;;;1.13;0.63;;;12.50;99.90;;;;;;5022779;28;20040;-77
2022/09/24 01:41:17;;;;;;;0.50;0.50;;;12.50;99.90;;;;;;5008717;28;20026;-77
2022/09/24 01:43:44;;;;;;;0.50;0.50;;;12.40;99.90;;;;;;5008917;28;20038;-77
2022/09/24 01:46:11;;;;;;;0.45;0.45;;;12.70;99.90;;;;;;5008723;28;20050;-77
2022/09/24 01:48:38;;;;;;;1.20;0.90;;;12.80;99.90;;;;;;5009007;28;20032;-77
2022/09/24 01:51:33;;;;;;;0.50;0.50;;;12.70;99.90;;;;;;5007494;28;20034;-77
2022/09/24 01:54:16;;;;;;;2.10;1.33;;;12.80;99.90;;;;;;5007415;28;20402;-78
2022/09/24 01:56:54;;;;;;;0.40;0.40;;;12.80;99.90;;;;;;5008625;28;20401;-79
2022/09/24 02:00:01;;;;;;;1.00;0.82;;;12.80;99.90;;;;;;5008343;28;20021;-78
2022/09/24 02:02:49;;;;;;;0.40;0.40;;;12.70;99.90;;;;;;4947157;28;20749;-77
2022/09/24 02:05:44;;;;;;;1.15;0.82;;;12.70;99.90;;;;;;4947422;29;20031;-77
2022/09/24 02:08:21;;;;;;;0.68;0.40;;;12.70;99.90;;;;;;4997207;28;20125;-78
2022/09/24 02:11:04;;;;;;;0.43;0.43;;;12.70;99.90;;;;;;5006665;28;20120;-78
2022/09/24 02:14:02;;;;;;;0.75;0.57;;;12.70;99.90;;;;;;5008420;28;20089;-77
2022/09/24 02:16:33;;;;;;;0.45;0.45;;;12.60;99.90;;;;;;5006286;28;20120;-77
2022/09/24 02:19:04;;;;;;;0.85;0.50;;;12.70;99.90;;;;;;5008261;28;20076;-77
2022/09/24 02:21:31;;;;;;;0.52;0.45;;;12.60;99.90;;;;;;5006958;28;20034;-78
2022/09/24 02:24:03;;;;;;;1.15;1.05;;;12.60;99.90;;;;;;5008167;28;20030;-78
2022/09/24 02:26:29;;;;;;;1.50;1.00;;;12.50;99.90;;;;;;5022943;28;20026;-78
2022/09/24 02:28:55;;;;;;;0.70;0.70;;;12.40;99.90;;;;;;5008290;28;20352;-78
2022/09/24 02:31:33;;;;;;;1.10;0.80;;;12.40;99.90;;;;;;5009474;28;20041;-77
2022/09/24 02:34:20;;;;;;;2.45;0.60;;;12.30;99.90;;;;;;5009575;28;20101;-78
2022/09/24 02:36:48;;;;;;;0.55;0.55;;;12.30;99.90;;;;;;5009371;28;20022;-78
2022/09/24 02:39:16;;;;;;;0.50;0.50;;;12.20;99.90;;;;;;5009429;28;20496;-77
2022/09/24 02:41:46;;;;;;;4.65;0.80;;;12.20;99.90;;;;;;5009193;28;20034;-77
2022/09/24 02:44:13;;;;;;;2.05;1.05;;;12.20;99.90;;;;;;5007726;28;20052;-77
2022/09/24 02:46:40;;;;;;;3.50;1.30;;;12.20;99.90;;;;;;5010641;28;20030;-77
2022/09/24 02:49:07;;;;;;;1.05;0.90;;;12.10;99.90;;;;;;5011115;28;20486;-77
2022/09/24 02:51:32;;;;;;;0.82;0.77;;;12.10;99.90;;;;;;5010788;28;20022;-77
2022/09/24 02:54:00;;;;;;;0.50;0.50;;;12.00;99.90;;;;;;5011014;28;20493;-78
2022/09/24 02:56:27;;;;;;;0.82;0.82;;;12.00;99.90;;;;;;5011099;28;20847;-78
2022/09/24 02:58:53;;;;;;;2.28;0.88;;;12.00;99.90;;;;;;5010681;28;20097;-78
2022/09/24 03:01:22;;;;;;;0.90;0.73;;;13.20;99.90;;;;;;5010847;28;20169;-78
2022/09/24 03:03:48;;;;;;;0.40;0.40;;;12.00;99.90;;;;;;5009863;28;20049;-78
2022/09/24 03:06:14;;;;;;;1.42;1.42;;;12.10;99.90;;;;;;5011305;28;20469;-77
2022/09/24 03:08:43;;;;;;;0.80;0.65;;;12.00;99.90;;;;;;5011053;28;20022;-79
2022/09/24 03:11:10;;;;;;;0.73;0.73;;;12.00;99.90;;;;;;5011527;28;20026;-77
2022/09/24 03:13:36;;;;;;;1.00;0.80;;;12.00;99.90;;;;;;5010806;28;20026;-78
2022/09/24 03:16:03;;;;;;;1.92;0.95;;;12.00;99.90;;;;;;5009848;28;20033;-78
2022/09/24 03:18:29;;;;;;;1.33;1.23;;;12.00;99.90;;;;;;5011109;28;20478;-78
2022/09/24 03:20:59;;;;;;;0.77;0.77;;;11.90;99.90;;;;;;5010767;28;20030;-78
2022/09/24 03:23:25;;;;;;;1.25;1.15;;;12.00;99.90;;;;;;5010506;28;20042;-79
2022/09/24 03:25:51;;;;;;;6.10;2.30;;;12.00;99.90;;;;;;5010699;28;20029;-79
2022/09/24 03:28:17;;;;;;;0.65;0.63;;;11.90;99.90;;;;;;5010331;28;20025;-78
2022/09/24 03:30:58;;;;;;;0.85;0.60;;;11.90;99.90;;;;;;5010518;28;20049;-78
2022/09/24 03:33:31;;;;;;;0.50;0.43;;;11.90;99.90;;;;;;5010700;28;20041;-77
2022/09/24 03:36:05;;;;;;;1.23;0.85;;;11.90;99.90;;;;;;5010300;28;20025;-77
2022/09/24 03:38:30;;;;;;;1.58;0.98;;;11.90;99.90;;;;;;5010216;28;20036;-78
2022/09/24 03:40:57;;;;;;;0.63;0.50;;;11.90;99.90;;;;;;5010243;28;20022;-77
2022/09/24 03:43:23;;;;;;;0.80;0.80;;;11.90;99.90;;;;;;5009956;28;20034;-77
2022/09/24 03:45:49;;;;;;;1.25;1.25;;;;;;;;;;5010490;28;20026;-77
2022/09/24 03:48:17;;;;;;;5.30;0.68;;;11.90;99.90;;;;;;5010095;28;20030;-77
2022/09/24 03:50:43;;;;;;;0.32;0.32;;;11.80;99.90;;;;;;5010202;28;20437;-78
2022/09/24 03:53:09;;;;;;;1.33;1.13;;;11.90;99.90;;;;;;5010198;28;20025;-77
2022/09/24 03:55:35;;;;;;;0.50;0.50;;;;;;;;;;5010127;28;20503;-77
2022/09/24 03:58:01;;;;;;;0.85;0.85;;;;;;;;;;5010010;28;20061;-78
2022/09/24 04:00:27;;;;;;;3.83;1.63;;;11.90;99.90;;;;;;5010231;28;20105;-77
2022/09/24 04:02:53;;;;;;;0.80;0.80;;;11.80;99.90;;;;;;5009963;28;20521;-78
2022/09/24 04:05:22;;;;;;;1.10;1.05;;;;;;;;;;5010150;28;20026;-78
2022/09/24 04:07:47;;;;;;;0.70;0.60;;;11.80;99.90;;;;;;5010270;28;20058;-78
2022/09/24 04:10:13;;;;;;;0.70;0.70;;;11.80;99.90;;;;;;5010116;28;20507;-77
2022/09/24 04:12:39;;;;;;;1.10;0.82;;;11.80;99.90;;;;;;5025219;28;20479;-77
2022/09/24 04:15:05;;;;;;;1.05;0.77;;;11.80;99.90;;;;;;5009651;28;20026;-77
2022/09/24 04:17:31;;;;;;;0.85;0.82;;;;;;;;;;5009974;28;20022;-78
2022/09/24 04:19:57;;;;;;;0.70;0.70;;;11.80;99.90;;;;;;5010073;28;20188;-77
2022/09/24 04:22:24;;;;;;;1.20;1.15;;;11.80;99.90;;;;;;5009754;28;20026;-77
2022/09/24 04:24:51;;;;;;;3.03;1.05;;;11.80;99.90;;;;;;5009852;28;20165;-77
2022/09/24 04:27:17;;;;;;;0.98;0.40;;;11.80;99.90;;;;;;5012270;28;20022;-77
2022/09/24 04:29:43;;;;;;;1.10;0.70;;;11.80;99.90;;;;;;5013351;28;20056;-77
2022/09/24 04:32:08;;;;;;;0.82;0.82;;;11.00;99.90;;;;;;5013391;28;20100;-77
2022/09/24 04:34:34;;;;;;;6.03;0.60;;;11.80;99.90;;;;;;5013595;28;20038;-77
2022/09/24 04:37:00;;;;;;;1.42;0.70;;;11.70;99.90;;;;;;5012259;28;20104;-77
2022/09/24 04:39:26;;;;;;;1.45;0.82;;;11.80;99.90;;;;;;5013408;28;20037;-77
2022/09/24 04:41:55;;;;;;;1.70;0.60;;;11.80;99.90;;;;;;5013534;28;20041;-77
2022/09/24 04:44:21;;;;;;;1.15;1.05;;;11.80;99.90;;;;;;5013251;28;20033;-77
2022/09/24 04:46:47;;;;;;;1.05;0.95;;;11.70;99.90;;;;;;5013249;28;20484;-77
2022/09/24 04:49:13;;;;;;;0.63;0.63;;;11.90;99.90;;;;;;5013268;28;20022;-77
2022/09/24 04:51:39;;;;;;;0.60;0.47;;;12.00;99.90;;;;;;5028423;28;20068;-77
2022/09/24 04:54:04;;;;;;;0.57;0.57;;;11.80;99.90;;;;;;5013297;28;20026;-77
2022/09/24 04:56:30;;;;;;;0.60;0.60;;;11.80;99.90;;;;;;5013245;28;20400;-77
2022/09/24 04:58:57;;;;;;;0.73;0.73;;;11.80;99.90;;;;;;5012900;28;20266;-78
2022/09/24 05:01:23;;;;;;;0.68;0.68;;;11.80;99.90;;;;;;5013123;28;20478;-80
2022/09/24 05:03:49;;;;;;;0.60;0.60;;;11.80;99.90;;;;;;5013674;28;20412;-77
2022/09/24 05:06:15;;;;;;;0.98;0.98;;;11.80;99.90;;;;;;5013003;28;20025;-79
2022/09/24 05:08:41;;;;;;;1.30;0.68;;;11.80;99.90;;;;;;5013296;28;20064;-77
2022/09/24 05:11:07;;;;;;;0.75;0.75;;;11.70;99.90;;;;;;5013549;28;20053;-78
2022/09/24 05:13:34;;;;;;;0.30;0.30;;;11.80;99.90;;;;;;5012819;28;20048;-78
2022/09/24 05:16:01;;;;;;;0.95;0.77;;;11.80;99.90;;;;;;5013019;28;20501;-79
2022/09/24 05:18:27;;;;;;;0.98;0.57;;;11.80;99.90;;;;;;5014237;28;20402;-78
2022/09/24 05:20:53;;;;;;;1.67;0.57;;;11.70;99.90;;;;;;5012991;28;20022;-78
2022/09/24 05:23:19;;;;;;;0.80;0.80;;;11.70;99.90;;;;;;5012823;28;20034;-78
2022/09/24 05:28:31;;;;;;;0.95;0.93;;;11.70;99.90;;;;;;5012880;28;20398;-79
2022/09/24 05:30:58;;;;;;;1.65;0.63;;;11.70;99.90;;;;;;5012930;28;20022;-78
2022/09/24 05:33:24;;;;;;;1.88;1.10;;;11.70;99.90;;;;;;5012534;28;20029;-78
2022/09/24 05:35:59;;;;;;;0.80;0.80;;;11.70;99.90;;;;;;5012171;28;20105;-77
2022/09/24 05:38:25;;;;;;;0.82;0.82;;;;;;;;;;5026515;28;20482;-78
2022/09/24 05:40:51;;;;;;;1.95;0.90;;;11.70;99.90;;;;;;5012124;28;20309;-77
2022/09/24 05:43:20;;;;;;;0.57;0.57;;;;;;;;;;5011850;28;20276;-77
2022/09/24 05:45:51;;;;;;;1.70;0.77;;;;;;;;;;5012423;28;20030;-77
2022/09/24 05:48:17;;;;;;;1.75;0.77;;;11.70;99.90;;;;;;5012277;28;20118;-77
2022/09/24 05:50:43;;;;;;;1.02;0.90;;;11.60;99.90;;;;;;5011882;28;20453;-77
2022/09/24 05:53:08;;;;;;;1.10;1.00;;;11.70;99.90;;;;;;5014377;28;20132;-77
2022/09/24 05:55:35;;;;;;;6.00;0.75;;;11.70;99.90;;;;;;5015780;28;20089;-77
2022/09/24 05:58:06;;;;;;;1.83;0.80;;;11.70;99.90;;;;;;5022660;28;20026;-78
2022/09/24 06:00:32;;;;;;;0.45;0.45;;;11.70;99.90;;;;;;5014182;28;20075;-78
2022/09/24 06:03:28;;;;;;;1.70;0.88;;;11.80;99.90;;;;;;5016673;28;20104;-77
2022/09/24 06:06:03;;;;;;;1.75;0.88;;;11.80;99.90;;;;;;5007727;28;20088;-77
2022/09/24 06:08:31;;;;;;;2.08;0.80;;;11.80;99.90;;;;;;5012749;28;20025;-77
2022/09/24 06:11:01;;;;;;;0.30;0.30;;;11.80;99.90;;;;;;5019453;28;20029;-77
2022/09/24 06:13:27;;;;;;;0.90;0.90;;;11.80;99.90;;;;;;5019690;28;20018;-77
2022/09/24 06:16:08;;;;;;;0.73;0.73;;;11.80;99.90;;;;;;5036580;28;20040;-77
2022/09/24 06:18:37;;;;;;;1.80;0.63;;;11.80;99.90;;;;;;5022728;28;20048;-77
2022/09/24 06:21:06;;;;;;;4.20;1.53;;;11.80;99.90;;;;;;5022954;28;20030;-77
2022/09/24 06:23:32;;;;;;;0.88;0.60;;;11.90;99.90;;;;;;5022832;28;20388;-79
2022/09/24 06:25:58;;;;;;;1.05;0.98;;;12.40;99.90;;;;;;5022782;28;20222;-77
2022/09/24 06:28:27;;;;;;;0.75;0.75;;;12.00;99.90;;;;;;5015933;28;20304;-77
2022/09/24 06:30:53;;;;;;;0.80;0.80;;;12.00;99.90;;;;;;5015075;28;20018;-78
2022/09/24 06:33:19;;;;;;;4.32;0.82;;;12.00;99.90;;;;;;5010651;28;20296;-78
2022/09/24 06:35:47;;;;;;;0.65;0.65;;;12.30;99.90;;;;;;5009673;28;20224;-77
2022/09/24 06:38:15;;;;;;;1.00;0.93;;;12.00;99.90;;;;;;5006827;28;20426;-79
2022/09/24 06:40:42;;;;;;;0.50;0.50;;;12.00;99.90;;;;;;5009351;28;20073;-80
2022/09/24 06:43:09;;;;;;;0.50;0.50;;;12.10;99.90;;;;;;5012614;28;20118;-79
2022/09/24 06:45:35;;;;;;;1.67;1.55;;;12.10;99.90;;;;;;5008326;28;20022;-79
2022/09/24 06:48:02;;;;;;;1.52;1.08;;;12.20;99.90;;;;;;5012088;28;20045;-79
2022/09/24 06:50:31;;;;;;;0.60;0.60;;;12.30;99.90;;;;;;5020547;28;20018;-80
2022/09/24 06:52:57;;;;;;;1.50;0.90;;;12.40;99.90;;;;;;5018337;28;20021;-79
2022/09/24 06:55:23;;;;;;;1.17;0.82;;;12.40;99.90;;;;;;5003852;28;20241;-80
2022/09/24 06:57:49;;;;;;;1.20;0.65;;;12.50;99.90;;;;;;4993024;28;20026;-79
2022/09/24 07:00:15;;;;;;;0.40;0.40;;;12.50;99.90;;;;;;4995501;28;20026;-79
2022/09/24 07:02:41;;;;;;;1.40;1.40;;;12.60;99.90;;;;;;4998625;28;20105;-79
2022/09/24 07:05:08;;;;;;;0.57;0.55;;;12.70;99.90;;;;;;4992838;28;20073;-79
2022/09/24 07:07:35;;;;;;;0.88;0.88;;;12.70;99.90;;;;;;5014763;28;20253;-83
2022/09/24 07:10:06;;;;;;;0.90;0.90;;;12.70;99.90;;;;;;5009580;28;20061;-79
2022/09/24 07:12:33;;;;;;;2.53;0.98;;;12.70;99.90;;;;;;5008830;28;20111;-79
2022/09/24 07:14:59;;;;;;;0.93;0.82;;;12.70;99.90;;;;;;5008738;28;20053;-79
2022/09/24 07:17:25;;;;;;;2.45;1.30;;;12.70;99.90;;;;;;5008522;28;20034;-81
2022/09/24 07:19:51;;;;;;;1.40;1.30;;;12.70;99.90;;;;;;5009135;28;20022;-79
2022/09/24 07:22:17;;;;;;;1.77;1.15;;;12.80;99.90;;;;;;5009382;28;20064;-80
2022/09/24 07:24:43;;;;;;;1.40;1.33;;;12.80;99.90;;;;;;5009673;28;20727;-80
2022/09/24 07:27:09;;;;;;;4.70;1.88;;;12.80;99.90;;;;;;5010356;28;20030;-80
2022/09/24 07:29:35;;;;;;;3.03;2.13;;;12.80;99.90;;;;;;5002759;28;20018;-79
2022/09/24 07:32:02;;;;;;;2.47;2.17;;;12.90;99.90;;;;;;5022334;28;20133;-79
2022/09/24 07:34:28;;;;;;;1.70;1.40;;;13.00;99.90;;;;;;5024148;28;20018;-79
2022/09/24 07:36:55;;;;;;;5.22;1.52;;;13.10;99.90;;;;;;5023335;28;20026;-80
2022/09/24 07:39:21;;;;;;;1.60;1.50;;;13.20;99.90;;;;;;5008103;28;20096;-79
2022/09/24 07:41:47;;;;;;;2.03;1.92;;;13.30;99.90;;;;;;5006985;28;20446;-80
2022/09/24 07:44:12;;;;;;;2.15;2.05;;;13.20;99.90;;;;;;5003447;28;20050;-79
2022/09/24 07:46:38;;;;;;;1.98;1.10;;;13.20;99.90;;;;;;4999391;28;20037;-79
2022/09/24 07:49:04;;;;;;;1.52;0.77;;;13.30;99.90;;;;;;4994498;28;20030;-79
2022/09/24 07:51:30;;;;;;;3.10;1.85;;;13.30;99.90;;;;;;4990645;28;20502;-80
2022/09/24 07:53:56;;;;;;;1.00;0.95;;;13.20;99.90;;;;;;4989097;28;20037;-80
2022/09/24 07:56:23;;;;;;;1.90;1.00;;;13.20;99.90;;;;;;4990095;28;20517;-81
2022/09/24 07:58:51;;;;;;;1.83;1.15;;;13.20;99.90;;;;;;4990913;28;20101;-79
2022/09/24 08:01:17;;;;;;;2.00;1.17;;;13.20;99.90;;;;;;4992157;28;20026;-80
2022/09/24 08:03:45;;;;;;;2.17;0.57;;;13.40;99.90;;;;;;4993080;28;20074;-81
2022/09/24 08:06:11;;;;;;;0.95;0.90;;;13.30;99.90;;;;;;4996442;28;20507;-77
2022/09/24 08:08:37;;;;;;;2.03;1.48;;;13.50;99.90;;;;;;5013570;28;20080;-79
2022/09/24 08:11:09;;;;;;;1.15;1.02;;;13.60;99.90;;;;;;5001670;28;20018;-78
2022/09/24 08:13:35;;;;;;;2.33;1.17;;;13.70;99.90;;;;;;4999253;28;20034;-78
2022/09/24 08:16:02;;;;;;;3.70;0.82;;;13.80;99.90;;;;;;5011711;28;20030;-79
2022/09/24 08:18:30;;;;;;;1.35;1.25;;;13.90;99.90;;;;;;5025429;28;20030;-79
2022/09/24 08:20:56;;;;;;;1.88;1.50;;;14.00;99.90;;;;;;5001277;28;20073;-79
2022/09/24 08:23:22;;;;;;;2.20;1.52;;;14.10;99.90;;;;;;5003679;28;20482;-80
2022/09/24 08:25:48;;;;;;;1.00;0.90;;;14.40;99.90;;;;;;5015449;28;20085;-82
2022/09/24 08:28:15;;;;;;;0.82;0.82;;;14.30;99.90;;;;;;5012001;28;20049;-80
2022/09/24 08:30:42;;;;;;;0.60;0.60;;;14.30;99.90;;;;;;5011340;28;20199;-81
2022/09/24 08:33:08;;;;;;;0.70;0.70;;;14.20;99.90;;;;;;5014153;28;20085;-79
2022/09/24 08:35:35;;;;;;;1.42;1.33;;;13.80;99.90;;;;;;5009460;28;20026;-80
2022/09/24 08:38:02;;;;;;;0.85;0.73;;;13.80;99.90;;;;;;5009752;28;20037;-79
2022/09/24 08:40:31;;;;;;;0.77;0.68;;;13.70;99.90;;;;;;5009260;28;20018;-79
2022/09/24 08:42:57;;;;;;;;;;;13.60;99.90;;;;;;5005216;28;20215;-80
2022/09/24 08:48:30;;;;;;;0.98;0.95;;;13.50;99.90;;;;;;5010822;28;20072;-81
2022/09/24 08:51:01;;;;;;;1.40;1.30;;;13.50;99.90;;;;;;4997598;28;20053;-78
2022/09/24 08:53:49;;;;;;;1.58;0.80;;;13.50;99.90;;;;;;5001556;28;20089;-79
2022/09/24 08:56:24;;;;;;;1.13;0.80;;;13.50;99.90;;;;;;5017626;28;20026;-79
2022/09/24 08:58:54;;;;;;;4.50;0.68;;;13.50;99.90;;;;;;5016498;28;20032;-81
2022/09/24 09:01:34;;;;;;;1.13;0.82;;;13.60;99.90;;;;;;5030533;28;20032;-79
2022/09/24 09:04:14;;;;;;;0.60;0.60;;;13.70;99.90;;;;;;5026736;28;20528;-79
2022/09/24 09:06:52;;;;;;;0.85;0.65;;;13.80;99.90;;;;;;5016650;28;20026;-79
2022/09/24 09:09:22;;;;;;;1.63;1.27;;;13.90;99.90;;;;;;5014029;28;20021;-79
2022/09/24 09:11:52;;;;;;;0.35;0.35;;;14.00;99.90;;;;;;5009022;28;20077;-79
2022/09/24 09:14:17;;;;;;;;;;;14.10;99.90;;;;;;5015622;28;20056;-78
2022/09/24 09:17:01;;;;;;;0.70;0.60;;;14.10;99.90;;;;;;5014397;28;20422;-77
2022/09/24 09:19:32;;;;;;;1.48;1.00;;;14.10;99.90;;;;;;5007306;28;20222;-79
2022/09/24 09:22:16;;;;;;;0.65;0.65;;;14.10;99.90;;;;;;5010963;28;20025;-82
2022/09/24 09:24:49;;;;;;;2.40;1.52;;;14.20;99.90;;;;;;5024085;28;20364;-83
2022/09/24 09:27:17;;;;;;;8.18;5.03;;;14.10;99.90;;;;;;5008045;28;20390;-79
2022/09/24 09:29:49;;;;;;;1.23;0.55;;;14.20;99.90;;;;;;5029174;28;20759;-80
2022/09/24 09:32:30;;;;;;;1.25;0.63;;;14.40;99.90;;;;;;5013921;28;20057;-79
2022/09/24 09:35:14;;;;;;;1.65;1.25;;;14.30;99.90;;;;;;5021970;28;20128;-78
2022/09/24 09:38:05;;;;;;;0.95;0.50;;;14.30;99.90;;;;;;4992416;28;20058;-78
2022/09/24 09:40:43;;;;;;;2.53;1.00;;;14.20;99.90;;;;;;4995059;28;20022;-78
2022/09/24 09:43:12;;;;;;;3.83;0.90;;;14.20;99.90;;;;;;4992696;28;20046;-78
2022/09/24 09:46:08;;;;;;;0.93;0.60;;;14.10;99.90;;;;;;4991223;28;20114;-79
2022/09/24 09:49:01;;;;;;;1.00;0.65;;;14.10;99.90;;;;;;4991476;28;20027;-79
2022/09/24 09:51:36;;;;;;;0.50;0.43;;;14.10;99.90;;;;;;5001088;28;20068;-79
2022/09/24 09:54:02;;;;;;;0.40;0.40;;;14.20;99.90;;;;;;5013436;28;20274;-79
2022/09/24 09:56:40;;;;;;;0.55;0.55;;;14.20;99.90;;;;;;5010513;28;20112;-79
2022/09/24 09:59:19;;;;;;;1.00;1.00;;;14.20;99.90;;;;;;4993872;28;20483;-82
2022/09/24 10:01:48;;;;;;;0.82;0.80;;;14.30;99.90;;;;;;4995443;28;20415;-79
2022/09/24 10:04:31;;;;;;;1.45;1.25;;;14.30;99.90;;;;;;4997447;28;20065;-78
2022/09/24 10:07:23;;;;;;;0.70;0.43;;;14.50;99.90;;;;;;4999824;28;20017;-80
2022/09/24 10:10:16;;;;;;;1.17;0.73;;;14.60;99.90;;;;;;5004672;28;20050;-81
2022/09/24 10:12:42;;;;;;;0.52;0.52;;;14.70;99.90;;;;;;5010810;28;20226;-79
2022/09/24 10:15:15;;;;;;;4.28;1.40;;;14.70;99.90;;;;;;5002835;28;20124;-79
2022/09/24 10:17:42;;;;;;;1.42;0.43;;;14.80;99.90;;;;;;4996427;28;20048;-79
2022/09/24 10:20:22;;;;;;;0.50;0.50;;;14.90;99.90;;;;;;4988871;28;20458;-79
2022/09/24 10:22:57;;;;;;;1.30;0.63;;;15.00;99.90;;;;;;4987924;28;20077;-80
2022/09/24 10:25:26;;;;;;;1.13;0.70;;;15.10;99.90;;;;;;4989130;28;20434;-79
2022/09/24 10:30:32;;;;;;;0.57;0.57;;;15.20;99.90;;;;;;4988124;28;20117;-80
2022/09/24 10:30:50;;;;;;;3.55;2.47;;;15.30;99.90;;;;;;4988095;28;20026;-78
2022/09/24 10:33:17;;;;;;;0.60;0.40;;;15.40;99.90;;;;;;4985891;28;20038;-79
2022/09/24 10:35:43;;;;;;;0.70;0.70;;;15.50;99.90;;;;;;4988272;28;20069;-79
2022/09/24 10:38:20;;;;;;;0.47;0.40;;;15.70;99.90;;;;;;4987578;28;20029;-79
2022/09/24 10:40:46;;;;;;;1.50;1.40;;;15.80;99.90;;;;;;4990584;28;20018;-79
2022/09/24 10:43:20;;;;;;;0.45;0.40;;;15.90;99.90;;;;;;4989974;28;20038;-79
2022/09/24 10:46:07;;;;;;;0.32;0.32;;;15.90;99.90;;;;;;4989828;28;20097;-80
2022/09/24 10:48:55;;;;;;;0.80;0.80;;;13.70;99.90;;;;;;4989908;28;20427;-79
2022/09/24 10:51:48;;;;;;;0.50;0.50;;;15.90;99.90;;;;;;4991283;28;20046;-79
2022/09/24 10:54:29;;;;;;;0.45;0.45;;;15.90;99.90;;;;;;5002860;28;20034;-79
2022/09/24 10:56:57;;;;;;;0.57;0.52;;;16.00;99.90;;;;;;5008501;28;20230;-79
2022/09/24 10:59:53;;;;;;;0.60;0.60;;;16.10;99.90;;;;;;4998794;28;20018;-79
2022/09/24 11:02:51;;;;;;;0.22;0.22;;;16.20;99.90;;;;;;4996273;28;20038;-80
2022/09/24 11:05:24;;;;;;;0.50;0.50;;;16.30;99.90;;;;;;4989678;28;20133;-79
2022/09/24 11:08:02;;;;;;;1.05;0.80;;;16.60;99.90;;;;;;5013276;28;20038;-80
2022/09/24 11:10:50;;;;;;;0.38;0.38;;;16.90;99.90;;;;;;5006153;28;20056;-81
2022/09/24 11:13:57;;;;;;;1.20;1.08;;;17.10;99.90;;;;;;5006274;28;20534;-80
2022/09/24 11:16:44;;;;;;;0.73;0.38;;;17.10;99.90;;;;;;5006262;28;20246;-80
2022/09/24 11:19:32;;;;;;;1.02;0.70;;;17.30;99.90;;;;;;5011057;28;20033;-80
2022/09/24 11:22:03;;;;;;;0.40;0.40;;;17.30;99.90;;;;;;5006196;28;20140;-80
2022/09/24 11:25:05;;;;;;;0.40;0.40;;;17.10;99.90;;;;;;5006065;28;20030;-78
2022/09/24 11:27:41;;;;;;;0.50;0.50;;;17.10;99.90;;;;;;5006284;28;20022;-78
2022/09/24 11:30:20;;;;;;;0.50;0.32;;;17.10;99.90;;;;;;5007206;28;20477;-79
2022/09/24 11:33:25;;;;;;;0.40;0.40;;;17.20;99.90;;;;;;5021490;28;20084;-80
2022/09/24 11:36:32;;;;;;;1.65;1.00;;;18.20;99.90;;;;;;5004677;28;20534;-80
2022/09/24 11:39:30;;;;;;;1.10;1.00;;;18.20;99.90;;;;;;5000875;28;20034;-80
2022/09/24 11:42:57;;;;;;;0.30;0.30;;;18.70;99.90;;;;;;5006660;28;20938;-80
2022/09/24 11:45:46;;;;;;;0.20;0.20;;;19.30;99.90;;;;;;4926891;29;20028;-80
2022/09/24 11:48:27;;;;;;;0.40;0.40;;;19.60;99.90;;;;;;4926309;29;20032;-80
2022/09/24 11:51:15;;;;;;;0.80;0.43;;;19.90;99.90;;;;;;4984046;28;20033;-80
2022/09/24 11:53:49;;;;;;;2.50;1.25;;;20.10;99.90;;;;;;5005213;28;20129;-80
2022/09/24 11:56:23;;;;;;;0.75;0.63;;;19.70;99.90;;;;;;5005936;28;20045;-81
2022/09/24 11:59:08;;;;;;;2.10;0.25;;;19.50;99.90;;;;;;5002186;28;20030;-82
2022/09/24 12:01:39;;;;;;;0.52;0.32;;;20.30;99.90;;;;;;5001524;28;20030;-80
2022/09/24 12:04:37;;;;;;;0.20;0.20;;;22.10;99.90;;;;;;5005706;28;20215;-78
2022/09/24 12:07:18;;;;;;;0.50;0.43;;;22.40;99.90;;;;;;4993044;28;20325;-79
2022/09/24 12:09:43;;;;;;;0.77;0.20;;;22.60;99.90;;;;;;5004333;28;20042;-81
2022/09/24 12:12:19;;;;;;;0.70;0.70;;;22.10;99.90;;;;;;5003836;28;20033;-81
2022/09/24 12:14:45;;;;;;;0.50;0.50;;;21.40;99.90;;;;;;5004970;28;20045;-78
2022/09/24 12:17:20;;;;;;;1.17;1.13;;;20.60;99.90;;;;;;5005601;28;20105;-80
2022/09/24 12:20:15;;;;;;;1.42;1.00;;;20.10;99.90;;;;;;5006446;28;20026;-80
2022/09/24 12:22:42;;;;;;;2.38;0.60;;;19.40;99.90;;;;;;5002634;28;20473;-81
2022/09/24 12:25:11;;;;;;;0.90;0.60;;;19.00;99.90;;;;;;5004171;28;20096;-81
2022/09/24 12:27:38;;;;;;;0.35;0.35;;;18.60;99.90;;;;;;4997832;28;20510;-81
2022/09/24 12:33:11;;;;;;;0.95;0.30;;;18.30;99.90;;;;;;4984784;28;20119;-79
2022/09/24 12:35:54;;;;;;;0.63;0.43;;;18.20;99.90;;;;;;4987594;28;20278;-81
2022/09/24 12:38:37;;;;;;;0.63;0.35;;;18.20;99.90;;;;;;4986420;28;20023;-81
2022/09/24 12:41:17;;;;;;;0.63;0.63;;;18.10;99.90;;;;;;5002222;28;20022;-79
2022/09/24 12:44:01;;;;;;;0.50;0.50;;;17.70;99.90;;;;;;4987390;28;20033;-79
2022/09/24 12:46:37;;;;;;;0.40;0.40;;;17.10;99.90;;;;;;4990939;28;20101;-79
2022/09/24 12:49:03;;;;;;;0.55;0.38;;;16.60;99.90;;;;;;4992568;28;20093;-78
2022/09/24 12:51:35;;;;;;;0.77;0.70;;;15.80;99.90;;;;;;5000329;28;20116;-79
2022/09/24 12:54:08;;;;;;;1.13;0.55;;;15.70;99.90;;;;;;5001301;28;20030;-79
2022/09/24 12:56:33;;;;;;;0.73;0.73;;;15.40;99.90;;;;;;4992768;28;20438;-79
2022/09/24 12:59:00;;;;;;;0.55;0.55;;;15.20;99.90;;;;;;4990741;28;20535;-78
2022/09/24 13:01:30;;;;;;;0.70;0.55;;;14.90;99.90;;;;;;4999888;28;20429;-78
2022/09/24 13:04:25;;;;;;;0.73;0.60;;;14.80;99.90;;;;;;5010255;28;20065;-78
2022/09/24 13:06:51;;;;;;;0.50;0.47;;;14.70;99.90;;;;;;5010299;28;20026;-78
2022/09/24 13:09:38;;;;;;;0.75;0.73;;;14.70;99.90;;;;;;5010193;28;20030;-79
2022/09/24 13:12:16;;;;;;;1.88;0.68;;;14.80;99.90;;;;;;5008917;28;20160;-78
2022/09/24 13:15:01;;;;;;;0.73;0.50;;;14.80;99.90;;;;;;5005859;28;20030;-80
2022/09/24 13:17:31;;;;;;;2.85;1.60;;;14.70;99.90;;;;;;5011234;28;20048;-80
2022/09/24 13:20:21;;;;;;;1.67;1.17;;;14.80;99.90;;;;;;5016266;28;20052;-79
2022/09/24 13:23:10;;;;;;;0.70;0.70;;;14.70;99.90;;;;;;5018131;28;20041;-80
2022/09/24 13:26:36;;;;;;;2.50;1.00;;;14.60;99.90;;;;;;5012117;28;20029;-80
2022/09/24 13:29:04;;;;;;;0.80;0.80;;;14.60;99.90;;;;;;5012608;28;20045;-80